sensor_id;sensor_type;location;lat;lon;timestamp;P1;durP1;ratioP1;P2;durP2;ratioP2
24677;SDS011;12800;53.094;8.778;2022-11-20T00:00:44;15.10;;;10.23;;
24677;SDS011;12800;53.094;8.778;2022-11-20T00:03:10;11.77;;;8.57;;
24677;SDS011;12800;53.094;8.778;2022-11-20T00:05:35;15.03;;;9.27;;
24677;SDS011;12800;53.094;8.778;2022-11-20T00:08:01;14.93;;;10.27;;
24677;SDS011;12800;53.094;8.778;2022-11-20T00:10:27;12.27;;;9.30;;
24677;SDS011;12800;53.094;8.778;2022-11-20T00:12:52;13.80;;;9.23;;
24677;SDS011;12800;53.094;8.778;2022-11-20T00:15:18;13.50;;;8.97;;
24677;SDS011;12800;53.094;8.778;2022-11-20T00:17:44;16.17;;;9.47;;
24677;SDS011;12800;53.094;8.778;2022-11-20T00:20:09;12.57;;;8.40;;
24677;SDS011;12800;53.094;8.778;2022-11-20T00:22:36;10.57;;;8.23;;
24677;SDS011;12800;53.094;8.778;2022-11-20T00:25:01;12.53;;;8.73;;
24677;SDS011;12800;53.094;8.778;2022-11-20T00:27:27;11.30;;;8.00;;
24677;SDS011;12800;53.094;8.778;2022-11-20T00:29:53;11.13;;;8.53;;
24677;SDS011;12800;53.094;8.778;2022-11-20T00:32:18;20.27;;;9.80;;
24677;SDS011;12800;53.094;8.778;2022-11-20T00:34:44;11.43;;;9.10;;
24677;SDS011;12800;53.094;8.778;2022-11-20T00:37:09;12.90;;;8.83;;
24677;SDS011;12800;53.094;8.778;2022-11-20T00:39:35;12.07;;;8.33;;
24677;SDS011;12800;53.094;8.778;2022-11-20T00:42:00;11.23;;;8.70;;
24677;SDS011;12800;53.094;8.778;2022-11-20T00:44:26;9.37;;;8.17;;
24677;SDS011;12800;53.094;8.778;2022-11-20T00:46:52;11.17;;;8.27;;
24677;SDS011;12800;53.094;8.778;2022-11-20T00:49:17;13.00;;;9.63;;
24677;SDS011;12800;53.094;8.778;2022-11-20T00:51:43;11.57;;;8.53;;
24677;SDS011;12800;53.094;8.778;2022-11-20T00:54:08;11.10;;;8.60;;
24677;SDS011;12800;53.094;8.778;2022-11-20T00:56:34;11.40;;;8.43;;
24677;SDS011;12800;53.094;8.778;2022-11-20T00:59:00;12.57;;;9.33;;
24677;SDS011;12800;53.094;8.778;2022-11-20T01:01:28;11.50;;;8.73;;
24677;SDS011;12800;53.094;8.778;2022-11-20T01:03:55;16.40;;;8.53;;
24677;SDS011;12800;53.094;8.778;2022-11-20T01:08:50;12.63;;;8.33;;
24677;SDS011;12800;53.094;8.778;2022-11-20T01:11:21;12.10;;;8.97;;
24677;SDS011;12800;53.094;8.778;2022-11-20T01:13:48;13.40;;;8.67;;
24677;SDS011;12800;53.094;8.778;2022-11-20T01:16:17;15.37;;;9.17;;
24677;SDS011;12800;53.094;8.778;2022-11-20T01:18:51;11.80;;;8.07;;
24677;SDS011;12800;53.094;8.778;2022-11-20T01:21:19;11.73;;;8.37;;
24677;SDS011;12800;53.094;8.778;2022-11-20T01:23:46;13.73;;;9.43;;
24677;SDS011;12800;53.094;8.778;2022-11-20T01:26:14;13.30;;;9.00;;
24677;SDS011;12800;53.094;8.778;2022-11-20T01:28:42;11.73;;;9.00;;
24677;SDS011;12800;53.094;8.778;2022-11-20T01:31:12;15.33;;;9.43;;
24677;SDS011;12800;53.094;8.778;2022-11-20T01:33:42;11.37;;;8.37;;
24677;SDS011;12800;53.094;8.778;2022-11-20T01:36:09;15.13;;;8.40;;
24677;SDS011;12800;53.094;8.778;2022-11-20T01:38:36;12.40;;;8.50;;
24677;SDS011;12800;53.094;8.778;2022-11-20T01:41:01;11.97;;;8.93;;
24677;SDS011;12800;53.094;8.778;2022-11-20T01:43:28;13.00;;;8.97;;
24677;SDS011;12800;53.094;8.778;2022-11-20T01:46:04;12.97;;;8.87;;
24677;SDS011;12800;53.094;8.778;2022-11-20T01:48:38;14.20;;;8.77;;
24677;SDS011;12800;53.094;8.778;2022-11-20T01:51:21;14.73;;;9.20;;
24677;SDS011;12800;53.094;8.778;2022-11-20T01:53:54;12.53;;;8.83;;
24677;SDS011;12800;53.094;8.778;2022-11-20T01:56:22;11.30;;;8.63;;
24677;SDS011;12800;53.094;8.778;2022-11-20T01:58:51;14.43;;;8.33;;
24677;SDS011;12800;53.094;8.778;2022-11-20T02:01:21;11.57;;;8.13;;
24677;SDS011;12800;53.094;8.778;2022-11-20T02:03:47;15.03;;;9.80;;
24677;SDS011;12800;53.094;8.778;2022-11-20T02:08:46;13.43;;;8.10;;
24677;SDS011;12800;53.094;8.778;2022-11-20T02:11:12;12.67;;;8.67;;
24677;SDS011;12800;53.094;8.778;2022-11-20T02:13:38;13.57;;;8.43;;
24677;SDS011;12800;53.094;8.778;2022-11-20T02:16:11;13.17;;;9.20;;
24677;SDS011;12800;53.094;8.778;2022-11-20T02:18:38;11.53;;;8.23;;
24677;SDS011;12800;53.094;8.778;2022-11-20T02:24:11;13.20;;;9.13;;
24677;SDS011;12800;53.094;8.778;2022-11-20T02:29:31;12.10;;;8.23;;
24677;SDS011;12800;53.094;8.778;2022-11-20T02:32:00;12.53;;;8.60;;
24677;SDS011;12800;53.094;8.778;2022-11-20T02:34:26;11.77;;;8.23;;
24677;SDS011;12800;53.094;8.778;2022-11-20T02:36:52;12.73;;;8.80;;
24677;SDS011;12800;53.094;8.778;2022-11-20T02:39:18;16.13;;;8.97;;
24677;SDS011;12800;53.094;8.778;2022-11-20T02:41:45;14.47;;;8.93;;
24677;SDS011;12800;53.094;8.778;2022-11-20T02:44:11;12.40;;;9.10;;
24677;SDS011;12800;53.094;8.778;2022-11-20T02:46:37;11.17;;;8.70;;
24677;SDS011;12800;53.094;8.778;2022-11-20T02:49:03;11.67;;;8.00;;
24677;SDS011;12800;53.094;8.778;2022-11-20T02:51:30;11.37;;;8.20;;
24677;SDS011;12800;53.094;8.778;2022-11-20T02:53:56;10.63;;;7.73;;
24677;SDS011;12800;53.094;8.778;2022-11-20T02:56:22;11.63;;;7.53;;
24677;SDS011;12800;53.094;8.778;2022-11-20T02:58:48;12.97;;;8.00;;
24677;SDS011;12800;53.094;8.778;2022-11-20T03:01:14;14.37;;;7.90;;
24677;SDS011;12800;53.094;8.778;2022-11-20T03:03:40;12.90;;;8.23;;
24677;SDS011;12800;53.094;8.778;2022-11-20T03:06:05;10.43;;;7.63;;
24677;SDS011;12800;53.094;8.778;2022-11-20T03:08:31;12.30;;;7.67;;
24677;SDS011;12800;53.094;8.778;2022-11-20T03:11:01;11.13;;;7.70;;
24677;SDS011;12800;53.094;8.778;2022-11-20T03:13:28;11.57;;;7.60;;
24677;SDS011;12800;53.094;8.778;2022-11-20T03:15:53;10.33;;;7.23;;
24677;SDS011;12800;53.094;8.778;2022-11-20T03:18:19;11.67;;;7.20;;
24677;SDS011;12800;53.094;8.778;2022-11-20T03:20:44;14.20;;;7.20;;
24677;SDS011;12800;53.094;8.778;2022-11-20T03:23:10;10.97;;;8.00;;
24677;SDS011;12800;53.094;8.778;2022-11-20T03:25:35;11.63;;;7.30;;
24677;SDS011;12800;53.094;8.778;2022-11-20T03:28:01;10.80;;;7.07;;
24677;SDS011;12800;53.094;8.778;2022-11-20T03:30:27;11.70;;;7.30;;
24677;SDS011;12800;53.094;8.778;2022-11-20T03:32:53;10.70;;;6.93;;
24677;SDS011;12800;53.094;8.778;2022-11-20T03:35:19;11.00;;;7.57;;
24677;SDS011;12800;53.094;8.778;2022-11-20T03:37:45;9.93;;;7.07;;
24677;SDS011;12800;53.094;8.778;2022-11-20T03:40:10;10.13;;;7.17;;
24677;SDS011;12800;53.094;8.778;2022-11-20T03:42:36;10.73;;;7.27;;
24677;SDS011;12800;53.094;8.778;2022-11-20T03:45:17;11.67;;;6.83;;
24677;SDS011;12800;53.094;8.778;2022-11-20T03:47:44;11.63;;;6.90;;
24677;SDS011;12800;53.094;8.778;2022-11-20T03:50:10;8.80;;;6.87;;
24677;SDS011;12800;53.094;8.778;2022-11-20T03:52:40;9.23;;;6.67;;
24677;SDS011;12800;53.094;8.778;2022-11-20T03:55:06;9.37;;;6.73;;
24677;SDS011;12800;53.094;8.778;2022-11-20T03:57:32;10.13;;;7.07;;
24677;SDS011;12800;53.094;8.778;2022-11-20T03:59:58;10.43;;;6.37;;
24677;SDS011;12800;53.094;8.778;2022-11-20T04:02:23;11.23;;;6.93;;
24677;SDS011;12800;53.094;8.778;2022-11-20T04:04:49;10.23;;;6.70;;
24677;SDS011;12800;53.094;8.778;2022-11-20T04:07:15;9.47;;;6.20;;
24677;SDS011;12800;53.094;8.778;2022-11-20T04:09:40;12.57;;;6.40;;
24677;SDS011;12800;53.094;8.778;2022-11-20T04:12:06;9.70;;;6.73;;
24677;SDS011;12800;53.094;8.778;2022-11-20T04:14:31;9.63;;;6.47;;
24677;SDS011;12800;53.094;8.778;2022-11-20T04:16:57;9.37;;;6.40;;
24677;SDS011;12800;53.094;8.778;2022-11-20T04:19:22;9.10;;;6.67;;
24677;SDS011;12800;53.094;8.778;2022-11-20T04:21:48;8.93;;;6.63;;
24677;SDS011;12800;53.094;8.778;2022-11-20T04:24:14;10.63;;;5.97;;
24677;SDS011;12800;53.094;8.778;2022-11-20T04:26:39;9.23;;;6.17;;
24677;SDS011;12800;53.094;8.778;2022-11-20T04:29:05;8.07;;;5.47;;
24677;SDS011;12800;53.094;8.778;2022-11-20T04:31:32;10.63;;;6.07;;
24677;SDS011;12800;53.094;8.778;2022-11-20T04:34:03;8.80;;;6.20;;
24677;SDS011;12800;53.094;8.778;2022-11-20T04:36:30;9.07;;;6.70;;
24677;SDS011;12800;53.094;8.778;2022-11-20T04:38:56;8.77;;;5.80;;
24677;SDS011;12800;53.094;8.778;2022-11-20T04:41:24;8.93;;;5.83;;
24677;SDS011;12800;53.094;8.778;2022-11-20T04:43:53;9.43;;;6.27;;
24677;SDS011;12800;53.094;8.778;2022-11-20T04:46:28;8.60;;;5.80;;
24677;SDS011;12800;53.094;8.778;2022-11-20T04:48:55;8.43;;;5.30;;
24677;SDS011;12800;53.094;8.778;2022-11-20T04:51:21;8.60;;;5.33;;
24677;SDS011;12800;53.094;8.778;2022-11-20T04:53:47;7.97;;;5.60;;
24677;SDS011;12800;53.094;8.778;2022-11-20T04:56:13;7.47;;;5.03;;
24677;SDS011;12800;53.094;8.778;2022-11-20T04:58:38;7.50;;;5.60;;
24677;SDS011;12800;53.094;8.778;2022-11-20T05:01:14;7.13;;;4.83;;
24677;SDS011;12800;53.094;8.778;2022-11-20T05:03:42;11.43;;;5.73;;
24677;SDS011;12800;53.094;8.778;2022-11-20T05:06:10;7.60;;;5.20;;
24677;SDS011;12800;53.094;8.778;2022-11-20T05:08:37;10.27;;;5.87;;
24677;SDS011;12800;53.094;8.778;2022-11-20T05:11:03;7.43;;;5.07;;
24677;SDS011;12800;53.094;8.778;2022-11-20T05:13:33;9.20;;;5.83;;
24677;SDS011;12800;53.094;8.778;2022-11-20T05:16:03;9.47;;;5.17;;
24677;SDS011;12800;53.094;8.778;2022-11-20T05:18:30;8.57;;;5.07;;
24677;SDS011;12800;53.094;8.778;2022-11-20T05:20:56;7.27;;;5.40;;
24677;SDS011;12800;53.094;8.778;2022-11-20T05:23:23;7.23;;;5.70;;
24677;SDS011;12800;53.094;8.778;2022-11-20T05:25:51;7.50;;;5.90;;
24677;SDS011;12800;53.094;8.778;2022-11-20T05:28:21;8.90;;;5.57;;
24677;SDS011;12800;53.094;8.778;2022-11-20T05:30:47;8.60;;;6.40;;
24677;SDS011;12800;53.094;8.778;2022-11-20T05:33:13;7.23;;;5.53;;
24677;SDS011;12800;53.094;8.778;2022-11-20T05:35:39;7.60;;;5.47;;
24677;SDS011;12800;53.094;8.778;2022-11-20T05:38:05;8.97;;;5.90;;
24677;SDS011;12800;53.094;8.778;2022-11-20T05:40:31;10.03;;;5.97;;
24677;SDS011;12800;53.094;8.778;2022-11-20T05:42:56;7.67;;;5.47;;
24677;SDS011;12800;53.094;8.778;2022-11-20T05:45:22;9.60;;;5.77;;
24677;SDS011;12800;53.094;8.778;2022-11-20T05:47:48;9.10;;;5.40;;
24677;SDS011;12800;53.094;8.778;2022-11-20T05:50:14;8.83;;;5.60;;
24677;SDS011;12800;53.094;8.778;2022-11-20T05:52:40;7.80;;;5.57;;
24677;SDS011;12800;53.094;8.778;2022-11-20T05:55:06;9.17;;;5.67;;
24677;SDS011;12800;53.094;8.778;2022-11-20T05:57:32;8.37;;;5.93;;
24677;SDS011;12800;53.094;8.778;2022-11-20T05:59:57;8.43;;;6.10;;
24677;SDS011;12800;53.094;8.778;2022-11-20T06:02:23;6.80;;;5.30;;
24677;SDS011;12800;53.094;8.778;2022-11-20T06:04:49;8.40;;;5.20;;
24677;SDS011;12800;53.094;8.778;2022-11-20T06:07:14;8.30;;;5.93;;
24677;SDS011;12800;53.094;8.778;2022-11-20T06:09:40;8.13;;;5.50;;
24677;SDS011;12800;53.094;8.778;2022-11-20T06:12:05;8.03;;;6.10;;
24677;SDS011;12800;53.094;8.778;2022-11-20T06:14:32;8.50;;;5.10;;
24677;SDS011;12800;53.094;8.778;2022-11-20T06:16:58;9.40;;;5.30;;
24677;SDS011;12800;53.094;8.778;2022-11-20T06:19:24;7.30;;;5.47;;
24677;SDS011;12800;53.094;8.778;2022-11-20T06:21:49;9.43;;;5.70;;
24677;SDS011;12800;53.094;8.778;2022-11-20T06:24:15;7.20;;;5.23;;
24677;SDS011;12800;53.094;8.778;2022-11-20T06:26:41;7.67;;;5.03;;
24677;SDS011;12800;53.094;8.778;2022-11-20T06:29:07;8.17;;;5.03;;
24677;SDS011;12800;53.094;8.778;2022-11-20T06:31:33;9.27;;;5.87;;
24677;SDS011;12800;53.094;8.778;2022-11-20T06:34:02;7.33;;;4.73;;
24677;SDS011;12800;53.094;8.778;2022-11-20T06:36:32;8.73;;;6.00;;
24677;SDS011;12800;53.094;8.778;2022-11-20T06:38:58;10.63;;;6.00;;
24677;SDS011;12800;53.094;8.778;2022-11-20T06:41:24;8.47;;;6.00;;
24677;SDS011;12800;53.094;8.778;2022-11-20T06:43:50;11.37;;;5.80;;
24677;SDS011;12800;53.094;8.778;2022-11-20T06:46:17;8.17;;;6.40;;
24677;SDS011;12800;53.094;8.778;2022-11-20T06:48:43;8.60;;;5.80;;
24677;SDS011;12800;53.094;8.778;2022-11-20T06:51:09;10.57;;;5.83;;
24677;SDS011;12800;53.094;8.778;2022-11-20T06:53:35;7.50;;;5.27;;
24677;SDS011;12800;53.094;8.778;2022-11-20T06:56:02;7.50;;;5.50;;
24677;SDS011;12800;53.094;8.778;2022-11-20T06:58:29;9.70;;;6.10;;
24677;SDS011;12800;53.094;8.778;2022-11-20T07:01:03;7.20;;;5.37;;
24677;SDS011;12800;53.094;8.778;2022-11-20T07:03:39;8.47;;;5.40;;
24677;SDS011;12800;53.094;8.778;2022-11-20T07:06:05;9.60;;;5.73;;
24677;SDS011;12800;53.094;8.778;2022-11-20T07:08:31;7.60;;;5.20;;
24677;SDS011;12800;53.094;8.778;2022-11-20T07:10:57;8.40;;;5.63;;
24677;SDS011;12800;53.094;8.778;2022-11-20T07:13:24;9.93;;;5.80;;
24677;SDS011;12800;53.094;8.778;2022-11-20T07:15:50;10.47;;;5.27;;
24677;SDS011;12800;53.094;8.778;2022-11-20T07:18:16;8.33;;;5.80;;
24677;SDS011;12800;53.094;8.778;2022-11-20T07:20:41;8.17;;;5.70;;
24677;SDS011;12800;53.094;8.778;2022-11-20T07:23:07;8.70;;;6.03;;
24677;SDS011;12800;53.094;8.778;2022-11-20T07:25:33;7.97;;;5.60;;
24677;SDS011;12800;53.094;8.778;2022-11-20T07:27:59;12.50;;;6.13;;
24677;SDS011;12800;53.094;8.778;2022-11-20T07:30:25;8.00;;;5.47;;
24677;SDS011;12800;53.094;8.778;2022-11-20T07:32:52;10.50;;;6.80;;
24677;SDS011;12800;53.094;8.778;2022-11-20T07:35:18;8.27;;;5.53;;
24677;SDS011;12800;53.094;8.778;2022-11-20T07:37:44;7.60;;;5.87;;
24677;SDS011;12800;53.094;8.778;2022-11-20T07:40:11;12.13;;;6.40;;
24677;SDS011;12800;53.094;8.778;2022-11-20T07:42:37;9.10;;;6.03;;
24677;SDS011;12800;53.094;8.778;2022-11-20T07:45:03;10.87;;;5.90;;
24677;SDS011;12800;53.094;8.778;2022-11-20T07:47:34;7.97;;;5.87;;
24677;SDS011;12800;53.094;8.778;2022-11-20T07:50:00;7.27;;;5.57;;
24677;SDS011;12800;53.094;8.778;2022-11-20T07:52:26;7.57;;;5.60;;
24677;SDS011;12800;53.094;8.778;2022-11-20T07:54:51;9.20;;;6.70;;
24677;SDS011;12800;53.094;8.778;2022-11-20T07:57:18;8.83;;;6.30;;
24677;SDS011;12800;53.094;8.778;2022-11-20T07:59:44;8.87;;;6.43;;
24677;SDS011;12800;53.094;8.778;2022-11-20T08:02:11;8.70;;;6.40;;
24677;SDS011;12800;53.094;8.778;2022-11-20T08:04:36;8.90;;;6.80;;
24677;SDS011;12800;53.094;8.778;2022-11-20T08:07:02;12.90;;;7.77;;
24677;SDS011;12800;53.094;8.778;2022-11-20T08:09:27;10.30;;;6.77;;
24677;SDS011;12800;53.094;8.778;2022-11-20T08:11:54;11.07;;;7.20;;
24677;SDS011;12800;53.094;8.778;2022-11-20T08:14:38;8.93;;;6.70;;
24677;SDS011;12800;53.094;8.778;2022-11-20T08:17:04;9.80;;;6.90;;
24677;SDS011;12800;53.094;8.778;2022-11-20T08:19:29;10.37;;;6.07;;
24677;SDS011;12800;53.094;8.778;2022-11-20T08:21:55;7.27;;;6.23;;
24677;SDS011;12800;53.094;8.778;2022-11-20T08:24:21;9.93;;;6.37;;
24677;SDS011;12800;53.094;8.778;2022-11-20T08:26:46;7.93;;;5.97;;
24677;SDS011;12800;53.094;8.778;2022-11-20T08:29:12;9.60;;;6.70;;
24677;SDS011;12800;53.094;8.778;2022-11-20T08:31:38;11.30;;;7.63;;
24677;SDS011;12800;53.094;8.778;2022-11-20T08:34:03;9.67;;;7.03;;
24677;SDS011;12800;53.094;8.778;2022-11-20T08:36:32;10.97;;;7.43;;
24677;SDS011;12800;53.094;8.778;2022-11-20T08:38:59;10.80;;;7.27;;
24677;SDS011;12800;53.094;8.778;2022-11-20T08:41:25;11.90;;;8.50;;
24677;SDS011;12800;53.094;8.778;2022-11-20T08:43:52;15.43;;;9.60;;
24677;SDS011;12800;53.094;8.778;2022-11-20T08:46:23;10.97;;;8.10;;
24677;SDS011;12800;53.094;8.778;2022-11-20T08:48:49;12.73;;;7.23;;
24677;SDS011;12800;53.094;8.778;2022-11-20T08:51:15;9.67;;;7.30;;
24677;SDS011;12800;53.094;8.778;2022-11-20T08:53:42;9.17;;;6.90;;
24677;SDS011;12800;53.094;8.778;2022-11-20T08:56:07;10.10;;;7.40;;
24677;SDS011;12800;53.094;8.778;2022-11-20T08:58:34;13.03;;;8.80;;
24677;SDS011;12800;53.094;8.778;2022-11-20T09:01:00;10.00;;;7.23;;
24677;SDS011;12800;53.094;8.778;2022-11-20T09:03:26;9.87;;;6.80;;
24677;SDS011;12800;53.094;8.778;2022-11-20T09:05:58;8.87;;;7.27;;
24677;SDS011;12800;53.094;8.778;2022-11-20T09:08:25;10.93;;;7.33;;
24677;SDS011;12800;53.094;8.778;2022-11-20T09:10:55;10.83;;;8.43;;
24677;SDS011;12800;53.094;8.778;2022-11-20T09:13:22;11.87;;;7.57;;
24677;SDS011;12800;53.094;8.778;2022-11-20T09:18:21;13.93;;;6.90;;
24677;SDS011;12800;53.094;8.778;2022-11-20T09:20:47;10.07;;;7.23;;
24677;SDS011;12800;53.094;8.778;2022-11-20T09:23:13;10.93;;;8.67;;
24677;SDS011;12800;53.094;8.778;2022-11-20T09:25:40;8.83;;;6.90;;
24677;SDS011;12800;53.094;8.778;2022-11-20T09:28:05;35.47;;;21.40;;
24677;SDS011;12800;53.094;8.778;2022-11-20T09:30:31;13.30;;;9.40;;
24677;SDS011;12800;53.094;8.778;2022-11-20T09:32:57;11.50;;;7.80;;
24677;SDS011;12800;53.094;8.778;2022-11-20T09:35:22;12.57;;;8.67;;
24677;SDS011;12800;53.094;8.778;2022-11-20T09:37:48;9.93;;;7.67;;
24677;SDS011;12800;53.094;8.778;2022-11-20T09:40:19;11.97;;;7.37;;
24677;SDS011;12800;53.094;8.778;2022-11-20T09:56:40;10.43;;;7.37;;
24677;SDS011;12800;53.094;8.778;2022-11-20T10:01:53;11.17;;;8.00;;
24677;SDS011;12800;53.094;8.778;2022-11-20T10:04:20;10.67;;;7.07;;
24677;SDS011;12800;53.094;8.778;2022-11-20T10:06:49;11.67;;;7.03;;
24677;SDS011;12800;53.094;8.778;2022-11-20T10:09:18;8.33;;;7.00;;
24677;SDS011;12800;53.094;8.778;2022-11-20T10:12:05;10.97;;;7.27;;
24677;SDS011;12800;53.094;8.778;2022-11-20T10:14:57;12.73;;;7.40;;
24677;SDS011;12800;53.094;8.778;2022-11-20T10:25:40;12.30;;;7.57;;
24677;SDS011;12800;53.094;8.778;2022-11-20T10:33:59;11.13;;;7.70;;
24677;SDS011;12800;53.094;8.778;2022-11-20T10:36:28;11.57;;;8.17;;
24677;SDS011;12800;53.094;8.778;2022-11-20T10:41:40;12.27;;;8.13;;
24677;SDS011;12800;53.094;8.778;2022-11-20T10:44:14;9.67;;;7.50;;
24677;SDS011;12800;53.094;8.778;2022-11-20T10:47:04;12.40;;;8.37;;
24677;SDS011;12800;53.094;8.778;2022-11-20T10:49:31;11.33;;;7.73;;
24677;SDS011;12800;53.094;8.778;2022-11-20T10:54:32;11.57;;;8.17;;
24677;SDS011;12800;53.094;8.778;2022-11-20T10:57:15;13.57;;;7.93;;
24677;SDS011;12800;53.094;8.778;2022-11-20T11:00:22;11.17;;;8.30;;
24677;SDS011;12800;53.094;8.778;2022-11-20T11:02:48;12.13;;;8.27;;
24677;SDS011;12800;53.094;8.778;2022-11-20T11:08:02;11.80;;;7.83;;
24677;SDS011;12800;53.094;8.778;2022-11-20T11:10:36;13.77;;;7.60;;
24677;SDS011;12800;53.094;8.778;2022-11-20T11:13:06;10.80;;;7.77;;
24677;SDS011;12800;53.094;8.778;2022-11-20T11:15:39;9.43;;;7.43;;
24677;SDS011;12800;53.094;8.778;2022-11-20T11:18:09;10.83;;;7.60;;
24677;SDS011;12800;53.094;8.778;2022-11-20T11:20:35;23.23;;;15.00;;
24677;SDS011;12800;53.094;8.778;2022-11-20T11:23:02;13.23;;;8.20;;
24677;SDS011;12800;53.094;8.778;2022-11-20T11:25:29;11.63;;;7.70;;
24677;SDS011;12800;53.094;8.778;2022-11-20T11:27:59;11.80;;;7.60;;
24677;SDS011;12800;53.094;8.778;2022-11-20T11:30:27;10.27;;;7.73;;
24677;SDS011;12800;53.094;8.778;2022-11-20T11:33:41;10.70;;;7.00;;
24677;SDS011;12800;53.094;8.778;2022-11-20T11:35:49;10.80;;;6.93;;
24677;SDS011;12800;53.094;8.778;2022-11-20T11:38:43;10.87;;;6.90;;
24677;SDS011;12800;53.094;8.778;2022-11-20T11:41:13;7.87;;;7.03;;
24677;SDS011;12800;53.094;8.778;2022-11-20T11:43:53;11.67;;;7.03;;
24677;SDS011;12800;53.094;8.778;2022-11-20T11:46:41;8.87;;;6.70;;
24677;SDS011;12800;53.094;8.778;2022-11-20T11:49:17;9.97;;;6.87;;
24677;SDS011;12800;53.094;8.778;2022-11-20T11:54:38;11.33;;;7.07;;
24677;SDS011;12800;53.094;8.778;2022-11-20T12:03:08;9.53;;;6.43;;
24677;SDS011;12800;53.094;8.778;2022-11-20T12:07:43;8.13;;;6.30;;
24677;SDS011;12800;53.094;8.778;2022-11-20T12:10:20;9.33;;;6.57;;
24677;SDS011;12800;53.094;8.778;2022-11-20T12:13:10;10.03;;;6.30;;
24677;SDS011;12800;53.094;8.778;2022-11-20T12:15:46;9.40;;;6.27;;
24677;SDS011;12800;53.094;8.778;2022-11-20T12:18:17;10.43;;;6.97;;
24677;SDS011;12800;53.094;8.778;2022-11-20T12:21:31;17.43;;;10.57;;
24677;SDS011;12800;53.094;8.778;2022-11-20T12:26:41;11.73;;;6.47;;
24677;SDS011;12800;53.094;8.778;2022-11-20T12:31:48;7.13;;;5.23;;
24677;SDS011;12800;53.094;8.778;2022-11-20T12:37:56;8.47;;;5.73;;
24677;SDS011;12800;53.094;8.778;2022-11-20T12:43:38;7.37;;;5.33;;
24677;SDS011;12800;53.094;8.778;2022-11-20T12:46:57;8.33;;;5.63;;
24677;SDS011;12800;53.094;8.778;2022-11-20T12:49:51;6.93;;;5.53;;
24677;SDS011;12800;53.094;8.778;2022-11-20T12:55:25;6.37;;;5.03;;
24677;SDS011;12800;53.094;8.778;2022-11-20T12:57:55;7.70;;;5.30;;
24677;SDS011;12800;53.094;8.778;2022-11-20T13:00:26;6.83;;;5.17;;
24677;SDS011;12800;53.094;8.778;2022-11-20T13:08:08;8.23;;;5.73;;
24677;SDS011;12800;53.094;8.778;2022-11-20T13:13:43;7.20;;;5.33;;
24677;SDS011;12800;53.094;8.778;2022-11-20T13:18:49;8.07;;;6.43;;
24677;SDS011;12800;53.094;8.778;2022-11-20T13:23:42;6.67;;;5.40;;
24677;SDS011;12800;53.094;8.778;2022-11-20T13:26:16;7.50;;;5.00;;
24677;SDS011;12800;53.094;8.778;2022-11-20T13:28:47;6.90;;;5.53;;
24677;SDS011;12800;53.094;8.778;2022-11-20T13:31:29;8.70;;;6.00;;
24677;SDS011;12800;53.094;8.778;2022-11-20T13:34:01;7.03;;;5.67;;
24677;SDS011;12800;53.094;8.778;2022-11-20T13:36:30;7.23;;;5.77;;
24677;SDS011;12800;53.094;8.778;2022-11-20T13:38:57;8.23;;;5.50;;
24677;SDS011;12800;53.094;8.778;2022-11-20T13:41:24;10.73;;;5.90;;
24677;SDS011;12800;53.094;8.778;2022-11-20T13:43:53;9.23;;;5.97;;
24677;SDS011;12800;53.094;8.778;2022-11-20T13:46:44;8.67;;;5.50;;
24677;SDS011;12800;53.094;8.778;2022-11-20T13:49:18;10.43;;;6.57;;
24677;SDS011;12800;53.094;8.778;2022-11-20T13:55:02;10.57;;;6.60;;
24677;SDS011;12800;53.094;8.778;2022-11-20T14:00:23;7.73;;;5.40;;
24677;SDS011;12800;53.094;8.778;2022-11-20T14:05:31;7.33;;;6.20;;
24677;SDS011;12800;53.094;8.778;2022-11-20T14:08:27;9.20;;;6.30;;
24677;SDS011;12800;53.094;8.778;2022-11-20T14:11:02;8.90;;;7.00;;
24677;SDS011;12800;53.094;8.778;2022-11-20T14:13:38;8.13;;;6.37;;
24677;SDS011;12800;53.094;8.778;2022-11-20T14:16:03;9.13;;;6.50;;
24677;SDS011;12800;53.094;8.778;2022-11-20T14:18:29;10.20;;;6.40;;
24677;SDS011;12800;53.094;8.778;2022-11-20T14:20:55;13.23;;;6.67;;
24677;SDS011;12800;53.094;8.778;2022-11-20T14:23:27;11.50;;;6.67;;
24677;SDS011;12800;53.094;8.778;2022-11-20T14:25:53;8.33;;;6.47;;
24677;SDS011;12800;53.094;8.778;2022-11-20T14:28:23;8.73;;;6.43;;
24677;SDS011;12800;53.094;8.778;2022-11-20T14:30:54;8.40;;;6.37;;
24677;SDS011;12800;53.094;8.778;2022-11-20T14:33:21;8.60;;;6.43;;
24677;SDS011;12800;53.094;8.778;2022-11-20T14:35:56;10.80;;;6.90;;
24677;SDS011;12800;53.094;8.778;2022-11-20T14:38:32;12.63;;;7.37;;
24677;SDS011;12800;53.094;8.778;2022-11-20T14:41:17;10.57;;;6.67;;
24677;SDS011;12800;53.094;8.778;2022-11-20T14:43:45;12.00;;;8.03;;
24677;SDS011;12800;53.094;8.778;2022-11-20T14:46:29;13.40;;;8.73;;
24677;SDS011;12800;53.094;8.778;2022-11-20T14:49:00;16.17;;;11.23;;
24677;SDS011;12800;53.094;8.778;2022-11-20T14:51:32;22.23;;;13.50;;
24677;SDS011;12800;53.094;8.778;2022-11-20T14:54:12;12.87;;;7.93;;
24677;SDS011;12800;53.094;8.778;2022-11-20T14:56:56;10.37;;;7.57;;
24677;SDS011;12800;53.094;8.778;2022-11-20T14:59:30;9.40;;;6.83;;
24677;SDS011;12800;53.094;8.778;2022-11-20T15:01:59;9.50;;;6.80;;
24677;SDS011;12800;53.094;8.778;2022-11-20T15:04:46;11.17;;;6.80;;
24677;SDS011;12800;53.094;8.778;2022-11-20T15:07:22;16.90;;;8.40;;
24677;SDS011;12800;53.094;8.778;2022-11-20T15:09:59;12.97;;;9.03;;
24677;SDS011;12800;53.094;8.778;2022-11-20T15:12:33;10.33;;;7.57;;
24677;SDS011;12800;53.094;8.778;2022-11-20T15:15:04;14.90;;;8.17;;
24677;SDS011;12800;53.094;8.778;2022-11-20T15:17:31;11.63;;;8.47;;
24677;SDS011;12800;53.094;8.778;2022-11-20T15:20:08;12.00;;;7.93;;
24677;SDS011;12800;53.094;8.778;2022-11-20T15:22:39;11.13;;;7.57;;
24677;SDS011;12800;53.094;8.778;2022-11-20T15:25:12;13.80;;;8.37;;
24677;SDS011;12800;53.094;8.778;2022-11-20T15:27:38;10.57;;;7.57;;
24677;SDS011;12800;53.094;8.778;2022-11-20T15:30:12;9.97;;;8.00;;
24677;SDS011;12800;53.094;8.778;2022-11-20T15:32:42;12.10;;;9.03;;
24677;SDS011;12800;53.094;8.778;2022-11-20T15:35:08;12.10;;;7.93;;
24677;SDS011;12800;53.094;8.778;2022-11-20T15:37:35;11.63;;;9.03;;
24677;SDS011;12800;53.094;8.778;2022-11-20T15:40:01;10.87;;;8.83;;
24677;SDS011;12800;53.094;8.778;2022-11-20T15:42:27;12.73;;;10.37;;
24677;SDS011;12800;53.094;8.778;2022-11-20T15:44:53;16.63;;;11.80;;
24677;SDS011;12800;53.094;8.778;2022-11-20T15:47:19;12.90;;;9.47;;
24677;SDS011;12800;53.094;8.778;2022-11-20T15:49:53;11.70;;;8.17;;
24677;SDS011;12800;53.094;8.778;2022-11-20T15:52:18;10.10;;;7.70;;
24677;SDS011;12800;53.094;8.778;2022-11-20T15:54:44;12.60;;;8.77;;
24677;SDS011;12800;53.094;8.778;2022-11-20T15:57:10;12.60;;;9.57;;
24677;SDS011;12800;53.094;8.778;2022-11-20T15:59:35;19.83;;;11.53;;
24677;SDS011;12800;53.094;8.778;2022-11-20T16:02:08;20.87;;;12.50;;
24677;SDS011;12800;53.094;8.778;2022-11-20T16:04:38;21.03;;;11.83;;
24677;SDS011;12800;53.094;8.778;2022-11-20T16:07:04;20.87;;;11.50;;
24677;SDS011;12800;53.094;8.778;2022-11-20T16:09:30;19.87;;;10.83;;
24677;SDS011;12800;53.094;8.778;2022-11-20T16:11:55;15.77;;;9.47;;
24677;SDS011;12800;53.094;8.778;2022-11-20T16:14:24;17.17;;;10.10;;
24677;SDS011;12800;53.094;8.778;2022-11-20T16:17:09;14.20;;;9.13;;
24677;SDS011;12800;53.094;8.778;2022-11-20T16:19:34;18.00;;;9.87;;
24677;SDS011;12800;53.094;8.778;2022-11-20T16:22:00;21.27;;;11.10;;
24677;SDS011;12800;53.094;8.778;2022-11-20T16:24:26;26.17;;;11.83;;
24677;SDS011;12800;53.094;8.778;2022-11-20T16:26:55;75.00;;;23.50;;
24677;SDS011;12800;53.094;8.778;2022-11-20T16:29:21;65.40;;;23.53;;